Terminal Aerodrome Forecast
Issued by NWS

Home | Current Version | Previous Version | Graphics & Text | Print | Product List | Glossary On
Versions: 1 2 3 4 5 6 7 8 9 10 11 12 13 14 15 16
000
FTUS43 KBIS 030500
TAFJMS
TAF
KJMS 030520Z 0306/0406 18013KT P6SM SCT080
     FM030900 32024G30KT 5SM BLSN OVC015
     FM031500 32028G35KT P6SM SCT015 BKN035=

USA.gov is the U.S. government's official web portal to all federal, state and local government web resources and services.